Time;durP1;ratioP1;P1;durP2;ratioP2;P2;SDS_P1;SDS_P2;PMS_P1;PMS_P2;Temp;Humidity;BMP_temperature;BMP_pressure;BME280_temperature;BME280_humidity;BME280_pressure;Samples;Min_cycle;Max_cycle;Signal;HPM_P1;HPM_P2
2023/03/13 00:00:05;;;;;;;19.02;4.25;;;;;;;;;;6224011;23;20035;-95
2023/03/13 00:02:41;;;;;;;23.42;3.65;;;;;;;;;;6221921;23;20035;-94
2023/03/13 00:05:22;;;;;;;13.48;3.08;;;;;;;;;;6251174;22;20000;-94
2023/03/13 00:08:09;;;;;;;28.05;4.22;;;;;;;;;;6220023;23;20095;-94
2023/03/13 00:10:34;;;;;;;;;;;;;;;;;;6250025;22;20533;-94
2023/03/13 00:13:03;;;;;;;24.95;4.25;;;;;;;;;;6248423;23;19899;-94
2023/03/13 00:15:29;;;;;;;31.45;5.60;;;;;;;;;;6222654;23;20015;-94
2023/03/13 00:17:56;;;;;;;9.85;3.13;;;;;;;;;;6247640;23;20325;-94
2023/03/13 00:20:22;;;;;;;33.42;5.30;;;;;;;;;;6246417;23;20062;-94
2023/03/13 00:22:51;;;;;;;31.05;4.95;;;;;;;;;;6246941;23;20063;-94
2023/03/13 00:25:27;;;;;;;23.35;4.95;;;;;;;;;;6245382;23;20082;-95
2023/03/13 00:28:01;;;;;;;13.20;2.67;;;;;;;;;;6244087;23;20061;-95
2023/03/13 00:30:37;;;;;;;18.70;4.65;;;;;;;;;;6244756;23;20131;-94
2023/03/13 00:33:04;;;;;;;9.15;1.92;;;;;;;;;;6219918;23;20100;-95
2023/03/13 00:35:30;;;;;;;21.63;4.40;;;;;;;;;;6244782;23;20030;-94
2023/03/13 00:37:56;;;;;;;36.92;5.20;;;;;;;;;;6220892;23;20016;-94
2023/03/13 00:40:28;;;;;;;28.40;5.00;;;;;;;;;;6245880;23;20004;-95
2023/03/13 00:42:54;;;;;;;32.85;5.57;;;;;;;;;;6245944;22;20439;-95
2023/03/13 00:45:23;;;;;;;29.83;3.38;;;;;;;;;;6245345;23;20008;-95
2023/03/13 00:47:49;;;;;;;14.95;4.03;;;;;;;;;;6243510;23;20464;-95
2023/03/13 00:50:16;;;;;;;26.42;4.80;;;;;;;;;;6218364;23;20012;-96
2023/03/13 00:52:49;;;;;;;34.15;4.68;;;;;;;;;;6219707;23;20037;-95
2023/03/13 00:55:15;;;;;;;13.52;3.45;;;;;;;;;;6245320;23;20042;-95
2023/03/13 00:57:41;;;;;;;22.38;3.58;;;;;;;;;;6246361;23;20069;-95
2023/03/13 01:00:08;;;;;;;16.75;3.88;;;;;;;;;;6222247;23;20508;-95
2023/03/13 01:02:54;;;;;;;31.42;4.47;;;;;;;;;;6221719;23;20346;-95
2023/03/13 01:05:20;;;;;;;31.40;6.43;;;;;;;;;;6245406;23;20008;-93
2023/03/13 01:08:24;;;;;;;47.15;5.78;;;;;;;;;;6246840;23;20036;-96
2023/03/13 01:10:50;;;;;;;28.25;6.28;;;;;;;;;;6246606;23;20083;-95
2023/03/13 01:13:16;;;;;;;39.05;6.03;;;;;;;;;;6245247;23;20008;-94
2023/03/13 01:15:46;;;;;;;27.15;4.15;;;;;;;;;;6248601;23;20005;-94
2023/03/13 01:18:18;;;;;;;20.08;4.15;;;;;;;;;;6247582;23;20670;-95
2023/03/13 01:20:45;;;;;;;40.38;5.63;;;;;;;;;;6221055;23;20012;-95
2023/03/13 01:23:11;;;;;;;30.85;5.72;;;;;;;;;;6246667;23;20000;-95
2023/03/13 01:25:39;;;;;;;18.67;2.95;;;;;;;;;;6245989;23;20020;-94
2023/03/13 01:28:09;;;;;;;33.38;5.90;;;;;;;;;;6244568;23;20143;-94
2023/03/13 01:31:03;;;;;;;17.27;4.82;;;;;;;;;;6242718;23;20027;-95
2023/03/13 01:33:29;;;;;;;26.80;5.68;;;;;;;;;;6223056;23;20074;-95
2023/03/13 01:36:05;;;;;;;19.90;4.07;;;;;;;;;;6246462;23;20008;-95
2023/03/13 01:38:32;;;;;;;20.67;4.32;;;;;;;;;;6248677;23;20064;-96
2023/03/13 01:41:01;;;;;;;30.13;6.00;;;;;;;;;;6249185;22;20007;-94
2023/03/13 01:43:35;;;;;;;20.52;5.70;;;;;;;;;;6245271;22;20012;-95
2023/03/13 01:46:17;;;;;;;33.95;4.72;;;;;;;;;;6246830;23;20023;-95
2023/03/13 01:48:46;;;;;;;23.30;5.80;;;;;;;;;;6244225;23;20405;-96
2023/03/13 01:51:21;;;;;;;29.58;5.88;;;;;;;;;;6243574;23;20043;-94
2023/03/13 01:54:08;;;;;;;20.58;4.25;;;;;;;;;;6246702;23;20031;-95
2023/03/13 01:56:47;;;;;;;40.67;5.25;;;;;;;;;;6244259;23;20034;-94
2023/03/13 01:59:14;;;;;;;22.48;4.40;;;;;;;;;;6246678;23;20008;-94
2023/03/13 02:01:45;;;;;;;26.77;5.22;;;;;;;;;;6246587;23;20008;-94
2023/03/13 02:04:12;;;;;;;42.95;8.35;;;;;;;;;;6218280;23;20008;-95
2023/03/13 02:06:40;;;;;;;21.50;4.80;;;;;;;;;;6220949;23;20008;-94
2023/03/13 02:09:12;;;;;;;11.80;2.88;;;;;;;;;;6245366;23;20012;-94
2023/03/13 02:11:57;;;;;;;29.67;6.28;;;;;;;;;;6244733;23;20389;-96
2023/03/13 02:14:25;;;;;;;47.88;6.22;;;;;;;;;;6246828;23;20004;-96
2023/03/13 02:17:11;;;;;;;36.60;5.90;;;;;;;;;;6245105;23;20430;-95
2023/03/13 02:19:44;;;;;;;31.85;5.18;;;;;;;;;;6247661;23;20008;-95
2023/03/13 02:22:27;;;;;;;21.05;3.08;;;;;;;;;;6243713;23;20016;-94
2023/03/13 02:25:12;;;;;;;13.70;3.08;;;;;;;;;;6245535;23;20011;-94
2023/03/13 02:27:39;;;;;;;30.02;3.53;;;;;;;;;;6250944;23;20039;-94
2023/03/13 02:30:05;;;;;;;11.60;2.85;;;;;;;;;;6230396;23;20022;-95
2023/03/13 02:32:39;;;;;;;32.78;6.20;;;;;;;;;;6235445;23;20004;-93
2023/03/13 02:35:11;;;;;;;39.30;5.10;;;;;;;;;;6257784;23;20443;-95
2023/03/13 02:37:47;;;;;;;24.33;4.82;;;;;;;;;;6229884;23;20022;-94
2023/03/13 02:40:18;;;;;;;25.83;4.90;;;;;;;;;;6233105;23;20346;-94
2023/03/13 02:42:50;;;;;;;13.57;3.47;;;;;;;;;;6252325;22;20022;-94
2023/03/13 02:45:18;;;;;;;29.88;5.20;;;;;;;;;;6234627;23;20019;-95
2023/03/13 02:47:44;;;;;;;20.35;4.43;;;;;;;;;;6256661;23;20008;-95
2023/03/13 02:50:13;;;;;;;11.90;2.83;;;;;;;;;;6252989;23;20816;-96
2023/03/13 02:52:49;;;;;;;20.98;4.72;;;;;;;;;;6233201;23;20012;-95
2023/03/13 02:55:42;;;;;;;14.02;3.60;;;;;;;;;;6264009;22;20055;-96
2023/03/13 02:58:11;;;;;;;12.60;2.05;;;;;;;;;;6254437;23;20008;-96
2023/03/13 03:00:37;;;;;;;17.83;4.68;;;;;;;;;;6245099;23;20046;-95
2023/03/13 03:03:09;;;;;;;9.30;2.95;;;;;;;;;;6226074;23;20012;-94
2023/03/13 03:05:41;;;;;;;24.10;3.50;;;;;;;;;;6225383;23;20012;-94
2023/03/13 03:08:07;;;;;;;20.25;2.63;;;;;;;;;;6224405;23;20100;-95
2023/03/13 03:10:36;;;;;;;17.92;2.75;;;;;;;;;;6250744;23;20008;-94
2023/03/13 03:13:02;;;;;;;7.40;2.00;;;;;;;;;;6249619;23;20012;-94
2023/03/13 03:15:28;;;;;;;15.00;2.45;;;;;;;;;;6229214;23;20008;-94
2023/03/13 03:17:54;;;;;;;18.27;3.13;;;;;;;;;;6254532;23;20039;-95
2023/03/13 03:20:21;;;;;;;3.15;1.50;;;;;;;;;;6228009;23;20015;-94
2023/03/13 03:22:52;;;;;;;11.15;2.33;;;;;;;;;;6253024;23;20000;-95
2023/03/13 03:25:33;;;;;;;6.65;2.28;;;;;;;;;;6234533;23;20012;-95
2023/03/13 03:28:10;;;;;;;6.90;1.83;;;;;;;;;;6232732;23;20012;-95
2023/03/13 03:31:07;;;;;;;5.60;2.42;;;;;;;;;;6263184;23;20015;-95
2023/03/13 03:33:34;;;;;;;6.03;2.45;;;;;;;;;;6255952;23;20012;-96
2023/03/13 03:36:04;;;;;;;8.77;2.50;;;;;;;;;;6227067;23;20026;-96
2023/03/13 03:38:38;;;;;;;6.45;1.67;;;;;;;;;;6250862;23;20012;-96
2023/03/13 03:41:05;;;;;;;17.60;2.67;;;;;;;;;;6252634;23;20008;-96
2023/03/13 03:43:35;;;;;;;2.90;1.60;;;;;;;;;;6252168;22;20041;-95
2023/03/13 03:46:02;;;;;;;6.65;2.40;;;;;;;;;;6252817;23;20632;-94
2023/03/13 03:48:28;;;;;;;8.00;2.60;;;;;;;;;;6252089;23;20012;-95
2023/03/13 03:50:54;;;;;;;6.80;1.85;;;;;;;;;;6253676;23;20003;-94
2023/03/13 03:53:20;;;;;;;6.20;1.73;;;;;;;;;;6252256;23;20119;-94
2023/03/13 03:55:47;;;;;;;2.35;0.98;;;;;;;;;;6226491;23;20019;-94
2023/03/13 03:58:16;;;;;;;2.65;1.15;;;;;;;;;;6226744;23;20039;-95
2023/03/13 04:00:43;;;;;;;1.88;1.20;;;;;;;;;;6252061;23;20008;-94
2023/03/13 04:03:19;;;;;;;1.50;1.17;;;;;;;;;;6255744;22;20004;-94
2023/03/13 04:05:45;;;;;;;3.95;1.60;;;;;;;;;;6230943;23;20005;-94
2023/03/13 04:08:12;;;;;;;4.25;1.50;;;;;;;;;;6251268;23;20421;-95
2023/03/13 04:10:38;;;;;;;3.63;2.20;;;;;;;;;;6253366;23;20039;-94
2023/03/13 04:13:04;;;;;;;9.45;2.15;;;;;;;;;;6251095;23;20157;-94
2023/03/13 04:15:30;;;;;;;5.97;1.67;;;;;;;;;;6250812;23;20004;-94
2023/03/13 04:17:57;;;;;;;3.10;1.55;;;;;;;;;;6225070;23;20450;-93
2023/03/13 04:20:23;;;;;;;6.88;1.88;;;;;;;;;;6224244;23;20328;-93
2023/03/13 04:22:49;;;;;;;9.00;1.75;;;;;;;;;;6250110;23;20450;-93
2023/03/13 04:25:17;;;;;;;5.40;1.60;;;;;;;;;;6225372;23;20242;-93
2023/03/13 04:27:43;;;;;;;5.00;1.83;;;;;;;;;;6250957;23;20008;-93
2023/03/13 04:30:28;;;;;;;4.57;2.00;;;;;;;;;;6223965;23;20011;-95
2023/03/13 04:32:54;;;;;;;5.78;2.58;;;;;;;;;;6227098;23;20027;-94
2023/03/13 04:35:23;;;;;;;4.88;1.88;;;;;;;;;;6245552;23;20473;-94
2023/03/13 04:37:49;;;;;;;3.00;1.42;;;;;;;;;;6219724;23;20020;-94
2023/03/13 04:40:24;;;;;;;4.25;2.17;;;;;;;;;;6247028;23;20000;-93
2023/03/13 04:42:56;;;;;;;6.85;2.30;;;;;;;;;;6226460;22;20070;-94
2023/03/13 04:45:24;;;;;;;6.88;3.10;;;;;;;;;;6223405;23;20082;-94
2023/03/13 04:47:50;;;;;;;13.05;3.25;;;;;;;;;;6248435;23;20147;-94
2023/03/13 04:50:19;;;;;;;7.80;3.08;;;;;;;;;;6246143;23;20449;-94
2023/03/13 04:52:58;;;;;;;10.50;2.80;;;;;;;;;;6247281;23;20012;-94
2023/03/13 04:55:29;;;;;;;6.65;2.65;;;;;;;;;;6245797;23;20628;-96
2023/03/13 04:58:01;;;;;;;6.18;3.15;;;;;;;;;;6247043;23;20012;-95
2023/03/13 05:00:30;;;;;;;14.60;4.22;;;;;;;;;;6248422;23;20001;-94
2023/03/13 05:02:56;;;;;;;7.60;2.88;;;;;;;;;;6225647;23;20012;-94
2023/03/13 05:05:23;;;;;;;12.15;4.28;;;;;;;;;;6250966;23;20019;-94
2023/03/13 05:07:49;;;;;;;9.95;5.35;;;;;;;;;;6226565;23;20027;-94
2023/03/13 05:10:15;;;;;;;7.50;3.05;;;;;;;;;;6223641;23;20020;-94
2023/03/13 05:12:41;;;;;;;7.60;2.92;;;;;;;;;;6247853;23;20480;-94
2023/03/13 05:15:11;;;;;;;6.70;3.17;;;;;;;;;;6222768;23;20012;-94
2023/03/13 05:17:39;;;;;;;5.30;3.05;;;;;;;;;;6248736;23;20011;-94
2023/03/13 05:20:14;;;;;;;11.30;3.78;;;;;;;;;;6222453;23;20008;-96
2023/03/13 05:22:43;;;;;;;8.18;3.38;;;;;;;;;;6247768;23;20008;-94
2023/03/13 05:25:09;;;;;;;8.00;3.97;;;;;;;;;;6248224;23;20019;-95
2023/03/13 05:27:38;;;;;;;6.72;3.45;;;;;;;;;;6248751;23;20004;-95
2023/03/13 05:30:07;;;;;;;8.90;4.43;;;;;;;;;;6247893;23;20004;-95
2023/03/13 05:32:33;;;;;;;5.00;3.13;;;;;;;;;;6249070;23;20008;-94
2023/03/13 05:35:05;;;;;;;19.95;4.60;;;;;;;;;;6224384;23;20009;-94
2023/03/13 05:40:33;;;;;;;4.10;2.30;;;;;;;;;;6216584;22;20004;-93
2023/03/13 05:43:29;;;;;;;6.72;3.47;;;;;;;;;;6250788;22;20028;-94
2023/03/13 05:46:09;;;;;;;11.23;3.80;;;;;;;;;;6241150;23;20008;-94
2023/03/13 05:48:37;;;;;;;7.72;2.05;;;;;;;;;;6248405;23;20016;-94
2023/03/13 05:51:07;;;;;;;7.28;2.58;;;;;;;;;;6224195;23;20042;-94
2023/03/13 05:53:33;;;;;;;11.75;2.88;;;;;;;;;;6222175;23;20449;-94
2023/03/13 05:55:59;;;;;;;7.85;2.35;;;;;;;;;;6222359;23;20486;-94
2023/03/13 05:58:31;;;;;;;10.52;3.22;;;;;;;;;;6249799;23;20435;-94
2023/03/13 06:01:01;;;;;;;9.75;1.92;;;;;;;;;;6224090;23;20016;-94
2023/03/13 06:03:27;;;;;;;5.22;2.45;;;;;;;;;;6249276;23;20023;-94
2023/03/13 06:06:23;;;;;;;6.35;2.25;;;;;;;;;;6224966;23;20008;-94
2023/03/13 06:08:55;;;;;;;7.95;2.17;;;;;;;;;;6222560;23;20054;-94
2023/03/13 06:11:44;;;;;;;9.85;3.35;;;;;;;;;;6248166;23;20015;-95
2023/03/13 06:14:16;;;;;;;9.50;2.50;;;;;;;;;;6247062;23;20004;-95
2023/03/13 06:16:42;;;;;;;4.82;2.60;;;;;;;;;;6247485;23;20019;-95
2023/03/13 06:19:08;;;;;;;6.95;2.83;;;;;;;;;;6223524;23;20047;-94
2023/03/13 06:21:34;;;;;;;8.82;2.67;;;;;;;;;;6223830;23;20087;-94
2023/03/13 06:24:00;;;;;;;9.43;2.10;;;;;;;;;;6249273;23;20359;-94
2023/03/13 06:26:30;;;;;;;8.68;2.67;;;;;;;;;;6250367;23;20004;-94
2023/03/13 06:32:10;;;;;;;12.38;3.03;;;;;;;;;;6218785;22;20481;-96
2023/03/13 06:34:45;;;;;;;12.95;3.85;;;;;;;;;;6225921;23;20012;-93
2023/03/13 06:37:23;;;;;;;5.50;3.28;;;;;;;;;;6223994;23;20426;-94
2023/03/13 06:39:49;;;;;;;7.45;3.03;;;;;;;;;;6248961;23;20023;-94
2023/03/13 06:42:15;;;;;;;13.32;4.28;;;;;;;;;;6221326;23;20068;-94
2023/03/13 06:44:53;;;;;;;10.73;3.28;;;;;;;;;;6220637;22;20040;-94
2023/03/13 06:47:44;;;;;;;13.15;4.55;;;;;;;;;;6226958;23;20011;-94
2023/03/13 06:50:06;;;;;;;;;;;;;;;;;;6247445;23;20056;-94
2023/03/13 06:55:27;;;;;;;21.90;4.20;;;;;;;;;;6194954;23;20068;-94
2023/03/13 06:57:59;;;;;;;10.63;2.53;;;;;;;;;;6249018;23;20014;-94
2023/03/13 07:00:28;;;;;;;9.95;2.67;;;;;;;;;;6249514;23;20444;-94
2023/03/13 07:02:59;;;;;;;9.80;1.98;;;;;;;;;;6249934;23;20083;-94
2023/03/13 07:06:04;;;;;;;12.85;3.13;;;;;;;;;;6250504;23;20011;-95
2023/03/13 07:08:37;;;;;;;7.05;4.03;;;;;;;;;;6246533;23;20004;-94
2023/03/13 07:11:24;;;;;;;8.38;2.47;;;;;;;;;;6225002;23;20047;-93
2023/03/13 07:13:53;;;;;;;13.05;4.25;;;;;;;;;;6224251;23;20009;-94
2023/03/13 07:16:20;;;;;;;9.63;3.85;;;;;;;;;;6222325;23;20012;-95
2023/03/13 07:18:46;;;;;;;7.90;2.85;;;;;;;;;;6222157;23;20008;-95
2023/03/13 07:21:15;;;;;;;11.18;2.97;;;;;;;;;;6222449;23;20013;-95
2023/03/13 07:23:44;;;;;;;14.27;3.80;;;;;;;;;;6245502;23;20015;-95
2023/03/13 07:26:13;;;;;;;11.98;2.33;;;;;;;;;;6242850;23;20078;-95
2023/03/13 07:28:48;;;;;;;15.85;3.40;;;;;;;;;;6245202;23;20007;-95
2023/03/13 07:31:15;;;;;;;9.23;3.43;;;;;;;;;;6250784;23;20018;-93
2023/03/13 07:34:12;;;;;;;;;;;;;;;;;;;;;
2023/03/13 07:36:49;;;;;;;;;;;;;;;;;;6245084;22;20008;-92
2023/03/13 07:39:30;;;;;;;;;;;;;;;;;;6249444;23;20275;-95
2023/03/13 07:41:59;;;;;;;5.88;1.77;;;;;;;;;;6251415;23;19907;-94
2023/03/13 07:44:38;;;;;;;23.05;4.13;;;;;;;;;;6220181;22;20505;-94
2023/03/13 07:47:04;;;;;;;12.98;2.83;;;;;;;;;;6248679;23;20018;-95
2023/03/13 07:49:38;;;;;;;13.25;2.78;;;;;;;;;;6249435;23;20004;-95
2023/03/13 07:52:10;;;;;;;14.95;2.80;;;;;;;;;;6253895;23;20001;-93
2023/03/13 07:54:36;;;;;;;10.85;2.65;;;;;;;;;;6223948;23;20012;-91
2023/03/13 07:57:02;;;;;;;8.93;3.72;;;;;;;;;;6223240;23;20076;-92
2023/03/13 07:59:29;;;;;;;7.00;2.60;;;;;;;;;;6222041;23;20469;-94
2023/03/13 08:01:56;;;;;;;11.18;2.28;;;;;;;;;;6252125;23;20004;-94
2023/03/13 08:04:33;;;;;;;16.60;3.13;;;;;;;;;;6252557;23;20181;-95
2023/03/13 08:07:32;;;;;;;9.15;2.80;;;;;;;;;;6228837;23;20012;-96
2023/03/13 08:09:58;;;;;;;8.27;1.73;;;;;;;;;;6241926;23;20062;-92
2023/03/13 08:12:24;;;;;;;4.50;2.00;;;;;;;;;;6251863;23;20082;-93
2023/03/13 08:14:51;;;;;;;7.40;2.33;;;;;;;;;;6221663;23;20019;-93
2023/03/13 08:17:17;;;;;;;3.08;1.77;;;;;;;;;;6251448;23;20001;-95
2023/03/13 08:20:06;;;;;;;4.15;1.80;;;;;;;;;;6226213;23;20012;-95
2023/03/13 08:22:42;;;;;;;7.43;1.75;;;;;;;;;;6253498;22;20012;-94
2023/03/13 08:25:08;;;;;;;7.40;2.75;;;;;;;;;;6232115;23;20075;-94
2023/03/13 08:27:45;;;;;;;2.75;1.23;;;;;;;;;;6253495;23;20008;-95
2023/03/13 08:30:23;;;;;;;1.45;0.98;;;;;;;;;;6255204;22;20690;-95
2023/03/13 08:32:56;;;;;;;5.03;1.55;;;;;;;;;;6229745;23;20012;-94
2023/03/13 08:35:22;;;;;;;2.45;1.42;;;;;;;;;;6253349;23;20062;-95
2023/03/13 08:38:01;;;;;;;7.10;2.13;;;;;;;;;;6227428;23;20005;-94
2023/03/13 08:40:31;;;;;;;8.25;1.98;;;;;;;;;;6230793;23;20004;-95
2023/03/13 08:42:57;;;;;;;4.85;1.90;;;;;;;;;;6253482;23;20009;-94
2023/03/13 08:45:34;;;;;;;4.93;1.98;;;;;;;;;;6278273;22;20012;-95
2023/03/13 08:48:05;;;;;;;5.80;2.58;;;;;;;;;;6233844;22;20529;-94
2023/03/13 08:50:57;;;;;;;6.85;1.48;;;;;;;;;;6237127;22;20019;-93
2023/03/13 08:53:32;;;;;;;8.38;1.65;;;;;;;;;;6209825;22;20012;-94
2023/03/13 08:55:59;;;;;;;5.05;1.38;;;;;;;;;;6264514;22;20008;-94
2023/03/13 08:58:26;;;;;;;1.58;1.02;;;;;;;;;;6262225;22;20464;-94
2023/03/13 09:01:01;;;;;;;7.28;1.40;;;;;;;;;;6263266;22;20007;-93
2023/03/13 09:03:34;;;;;;;5.80;1.80;;;;;;;;;;6241308;22;20063;-94
2023/03/13 09:06:00;;;;;;;7.18;1.10;;;;;;;;;;6269356;22;20015;-93
2023/03/13 09:08:30;;;;;;;1.65;0.90;;;;;;;;;;6265297;22;20003;-93
2023/03/13 09:11:02;;;;;;;3.70;1.15;;;;;;;;;;6265099;22;20007;-93
2023/03/13 09:13:58;;;;;;;2.17;1.20;;;;;;;;;;6261605;22;19988;-93
2023/03/13 09:16:26;;;;;;;6.38;1.23;;;;;;;;;;6207518;22;20008;-92
2023/03/13 09:19:01;;;;;;;4.40;1.17;;;;;;;;;;6234765;22;20127;-93
2023/03/13 09:21:36;;;;;;;7.43;1.40;;;;;;;;;;6235884;22;20027;-93
2023/03/13 09:24:05;;;;;;;3.72;1.35;;;;;;;;;;6239152;22;20429;-93
2023/03/13 09:26:42;;;;;;;5.18;2.03;;;;;;;;;;6237934;22;20011;-94
2023/03/13 09:29:13;;;;;;;11.52;1.67;;;;;;;;;;6235598;22;20045;-93
2023/03/13 09:34:31;;;;;;;9.50;1.92;;;;;;;;;;6219179;22;20014;-94
2023/03/13 09:37:02;;;;;;;14.13;2.40;;;;;;;;;;6237136;22;20047;-94
2023/03/13 09:42:32;;;;;;;10.80;2.75;;;;;;;;;;6263760;22;20004;-93
2023/03/13 09:45:21;;;;;;;6.88;1.98;;;;;;;;;;6231890;22;20015;-93
2023/03/13 09:48:30;;;;;;;;;;;;;;;;;;;;;
2023/03/13 09:51:20;;;;;;;;;;;;;;;;;;;;;
2023/03/13 09:53:51;;;;;;;6.47;1.80;;;;;;;;;;6253626;23;20039;-93
2023/03/13 09:56:45;;;;;;;6.20;1.63;;;;;;;;;;6251499;23;20327;-93
2023/03/13 09:59:49;;;;;;;15.32;2.45;;;;;;;;;;6251051;23;20004;-93
2023/03/13 10:02:22;;;;;;;10.05;2.08;;;;;;;;;;6251104;23;20011;-92
2023/03/13 10:04:51;;;;;;;17.13;2.67;;;;;;;;;;6251652;23;20482;-91
2023/03/13 10:07:37;;;;;;;13.35;2.92;;;;;;;;;;6252972;23;20058;-93
2023/03/13 10:10:30;;;;;;;6.93;2.85;;;;;;;;;;6229704;23;20008;-94
2023/03/13 10:13:16;;;;;;;8.65;1.95;;;;;;;;;;6251632;23;20073;-92
2023/03/13 10:16:00;;;;;;;10.02;2.08;;;;;;;;;;6259771;23;20012;-93
2023/03/13 10:18:43;;;;;;;7.68;2.00;;;;;;;;;;6261720;23;20526;-92
2023/03/13 10:24:43;;;;;;;12.93;3.20;;;;;;;;;;6185538;23;20039;-94
2023/03/13 10:27:20;;;;;;;14.02;2.35;;;;;;;;;;6181869;23;19993;-93
2023/03/13 10:45:30;;;;;;;16.70;3.47;;;;;;;;;;6226593;22;19919;-95
2023/03/13 18:43:02;;;;;;;17.17;3.28;;;;;;;;;;6258489;22;20117;-95
2023/03/13 18:45:33;;;;;;;22.73;3.70;;;;;;;;;;6253282;23;20019;-95
2023/03/13 18:48:15;;;;;;;16.95;3.42;;;;;;;;;;6232293;23;20023;-95
2023/03/13 18:50:44;;;;;;;41.00;3.90;;;;;;;;;;6255256;23;20023;-95
2023/03/13 18:56:22;;;;;;;20.35;3.58;;;;;;;;;;6149794;23;20025;-95
2023/03/13 18:58:50;;;;;;;33.03;4.30;;;;;;;;;;6154858;23;20336;-96
2023/03/13 19:01:18;;;;;;;24.52;3.47;;;;;;;;;;6255976;23;20014;-96
2023/03/13 19:04:13;;;;;;;25.95;3.38;;;;;;;;;;6256806;23;20004;-96
2023/03/13 19:07:03;;;;;;;22.33;3.60;;;;;;;;;;6253622;23;20008;-96
2023/03/13 19:09:50;;;;;;;13.73;3.33;;;;;;;;;;6255411;23;20004;-96
2023/03/13 19:12:19;;;;;;;20.92;3.28;;;;;;;;;;6253521;23;20003;-96
2023/03/13 19:14:55;;;;;;;;;;;;;;;;;;;;;
2023/03/13 19:17:43;;;;;;;30.27;4.85;;;;;;;;;;6238272;23;20562;-96
2023/03/13 19:20:33;;;;;;;18.80;2.60;;;;;;;;;;6138888;23;20017;-95
2023/03/13 19:23:19;;;;;;;15.25;3.25;;;;;;;;;;6255804;23;20468;-96
2023/03/13 19:25:51;;;;;;;28.05;3.72;;;;;;;;;;6259432;23;20007;-96
2023/03/13 19:28:23;;;;;;;21.05;3.58;;;;;;;;;;6256088;23;20016;-95
2023/03/13 19:31:06;;;;;;;16.58;2.80;;;;;;;;;;6255617;23;20000;-96
2023/03/13 19:33:45;;;;;;;21.65;2.42;;;;;;;;;;6258278;23;20012;-96
2023/03/13 19:36:32;;;;;;;20.50;2.90;;;;;;;;;;6256113;23;20001;-96
2023/03/13 19:39:24;;;;;;;;;;;;;;;;;;;;;
2023/03/13 19:42:13;;;;;;;16.63;2.75;;;;;;;;;;6257532;22;20028;-95
2023/03/13 19:45:11;;;;;;;32.88;5.32;;;;;;;;;;6245627;22;20057;-90
2023/03/13 19:50:48;;;;;;;15.48;3.35;;;;;;;;;;6250631;23;20008;-91
2023/03/13 19:56:27;;;;;;;23.75;4.10;;;;;;;;;;6232239;23;19996;-91
2023/03/13 19:59:14;;;;;;;19.98;3.25;;;;;;;;;;6227000;23;20008;-89
2023/03/13 20:04:38;;;;;;;26.48;4.50;;;;;;;;;;6253218;23;20008;-91
2023/03/13 20:07:18;;;;;;;35.88;6.40;;;;;;;;;;6227889;23;20001;-92
2023/03/13 20:10:04;;;;;;;28.92;3.80;;;;;;;;;;6227758;23;20047;-90
2023/03/13 20:15:42;;;;;;;32.97;4.97;;;;;;;;;;6226600;23;20480;-90
2023/03/13 20:18:47;;;;;;;;;;;;;;;;;;;;;
2023/03/13 20:21:24;;;;;;;18.58;2.42;;;;;;;;;;6248798;23;20031;-91
2023/03/13 20:24:12;;;;;;;22.38;2.88;;;;;;;;;;6222742;23;20487;-91
2023/03/13 20:26:59;;;;;;;21.67;4.18;;;;;;;;;;6223697;23;19985;-91
2023/03/13 20:29:28;;;;;;;25.92;4.78;;;;;;;;;;6223271;23;20115;-92
2023/03/13 20:31:59;;;;;;;24.23;3.97;;;;;;;;;;6225819;23;20074;-91
2023/03/13 20:34:34;;;;;;;19.10;4.40;;;;;;;;;;6257014;22;20338;-90
2023/03/13 20:37:21;;;;;;;17.23;2.42;;;;;;;;;;6256607;22;20004;-92
2023/03/13 20:40:00;;;;;;;29.58;4.45;;;;;;;;;;6256857;22;20059;-92
2023/03/13 20:42:34;;;;;;;34.05;5.68;;;;;;;;;;6238681;22;20016;-92
2023/03/13 20:45:19;;;;;;;36.38;5.28;;;;;;;;;;6251474;22;20437;-92
2023/03/13 20:47:49;;;;;;;35.25;4.93;;;;;;;;;;6226879;23;20430;-91
2023/03/13 20:50:18;;;;;;;29.70;4.65;;;;;;;;;;6225916;23;20358;-92
2023/03/13 20:53:15;;;;;;;32.28;4.57;;;;;;;;;;6250436;23;20038;-93
2023/03/13 20:55:43;;;;;;;;;;;;;;;;;;6254349;23;20008;-91
2023/03/13 20:58:24;;;;;;;28.33;4.35;;;;;;;;;;6251997;23;19904;-92
2023/03/13 21:01:03;;;;;;;20.73;4.90;;;;;;;;;;6250154;23;20377;-91
2023/03/13 21:03:34;;;;;;;15.98;3.65;;;;;;;;;;6224896;23;20020;-91
2023/03/13 21:06:28;;;;;;;19.73;4.63;;;;;;;;;;6251111;22;20004;-92
2023/03/13 21:08:55;;;;;;;24.80;4.88;;;;;;;;;;6249965;23;20333;-91
2023/03/13 21:11:24;;;;;;;12.38;3.40;;;;;;;;;;6221760;23;20067;-92
2023/03/13 21:13:55;;;;;;;29.25;4.97;;;;;;;;;;6250675;23;20008;-91
2023/03/13 21:16:25;;;;;;;31.33;3.72;;;;;;;;;;6228006;23;20012;-92
2023/03/13 21:18:57;;;;;;;27.40;3.72;;;;;;;;;;6228230;23;20009;-91
2023/03/13 21:21:35;;;;;;;42.20;3.08;;;;;;;;;;6255818;23;20004;-92
2023/03/13 21:24:15;;;;;;;21.08;3.22;;;;;;;;;;6232443;23;20602;-91
2023/03/13 21:26:50;;;;;;;17.35;3.78;;;;;;;;;;6254502;23;20036;-91
2023/03/13 21:29:45;;;;;;;27.70;4.13;;;;;;;;;;6255029;23;20011;-92
2023/03/13 21:32:11;;;;;;;28.73;3.42;;;;;;;;;;6224115;23;20019;-90
2023/03/13 21:34:37;;;;;;;22.52;3.95;;;;;;;;;;6226766;23;20091;-91
2023/03/13 21:37:16;;;;;;;35.03;4.40;;;;;;;;;;6254467;23;20064;-91
2023/03/13 21:39:58;;;;;;;26.60;3.22;;;;;;;;;;6252563;23;20084;-90
2023/03/13 21:42:25;;;;;;;31.48;4.30;;;;;;;;;;6227790;23;20018;-91
2023/03/13 21:45:01;;;;;;;41.53;4.53;;;;;;;;;;6249784;22;20016;-91
2023/03/13 21:47:30;;;;;;;36.42;4.30;;;;;;;;;;6229609;23;20445;-90
2023/03/13 21:49:59;;;;;;;25.33;4.85;;;;;;;;;;6250644;23;20020;-91
2023/03/13 21:52:25;;;;;;;22.67;4.00;;;;;;;;;;6251776;23;20457;-91
2023/03/13 21:54:52;;;;;;;38.28;4.65;;;;;;;;;;6225356;23;20384;-95
2023/03/13 21:57:21;;;;;;;28.98;3.05;;;;;;;;;;6253406;23;20012;-91
2023/03/13 21:59:47;;;;;;;32.22;4.85;;;;;;;;;;6251558;23;20042;-89
2023/03/13 22:02:16;;;;;;;23.15;3.70;;;;;;;;;;6254247;23;20430;-90
2023/03/13 22:04:49;;;;;;;17.58;2.78;;;;;;;;;;6228401;23;20008;-90
2023/03/13 22:07:29;;;;;;;15.60;4.43;;;;;;;;;;6253293;23;20000;-90
2023/03/13 22:09:58;;;;;;;27.52;4.72;;;;;;;;;;6229942;23;20012;-90
2023/03/13 22:12:30;;;;;;;16.92;2.88;;;;;;;;;;6253702;23;20015;-89
2023/03/13 22:17:47;;;;;;;34.15;5.13;;;;;;;;;;6225092;23;20015;-90
2023/03/13 22:20:20;;;;;;;20.17;4.10;;;;;;;;;;6227919;23;20383;-90
2023/03/13 22:22:52;;;;;;;19.85;3.28;;;;;;;;;;6254864;23;20061;-90
2023/03/13 22:25:20;;;;;;;25.38;4.72;;;;;;;;;;6230177;23;20008;-90
2023/03/13 22:28:02;;;;;;;16.90;2.80;;;;;;;;;;6256749;23;20004;-90
2023/03/13 22:30:47;;;;;;;28.95;4.22;;;;;;;;;;6230959;23;20085;-90
2023/03/13 22:33:17;;;;;;;36.65;4.72;;;;;;;;;;6254262;23;20015;-90
2023/03/13 22:35:46;;;;;;;28.20;4.43;;;;;;;;;;6257051;22;20521;-91
2023/03/13 22:38:19;;;;;;;15.05;2.42;;;;;;;;;;6233957;23;20016;-90
2023/03/13 22:40:58;;;;;;;41.75;4.25;;;;;;;;;;6231321;23;20020;-90
2023/03/13 22:43:28;;;;;;;17.15;3.00;;;;;;;;;;6262260;22;20014;-90
2023/03/13 22:46:03;;;;;;;36.55;5.60;;;;;;;;;;6228900;23;20026;-90
2023/03/13 22:48:31;;;;;;;24.50;4.55;;;;;;;;;;6228408;23;20019;-90
2023/03/13 22:51:02;;;;;;;28.60;4.20;;;;;;;;;;6202677;23;20015;-91
2023/03/13 22:53:52;;;;;;;;;;;;;;;;;;;;;
2023/03/13 22:56:45;;;;;;;28.17;4.53;;;;;;;;;;6178274;23;20012;-90
2023/03/13 22:59:20;;;;;;;37.22;4.78;;;;;;;;;;6227990;23;20043;-91
2023/03/13 23:02:11;;;;;;;32.67;4.57;;;;;;;;;;6205376;23;20011;-90
2023/03/13 23:04:42;;;;;;;23.67;3.72;;;;;;;;;;6232676;23;19989;-89
2023/03/13 23:07:14;;;;;;;21.15;3.83;;;;;;;;;;6231571;23;20034;-90
2023/03/13 23:09:45;;;;;;;20.33;3.25;;;;;;;;;;6229719;23;20008;-90
2023/03/13 23:12:11;;;;;;;20.23;3.33;;;;;;;;;;6228902;23;20008;-90
2023/03/13 23:14:48;;;;;;;20.30;3.33;;;;;;;;;;6205300;23;20008;-90
2023/03/13 23:17:15;;;;;;;30.63;3.83;;;;;;;;;;6230989;23;20107;-90
2023/03/13 23:19:41;;;;;;;38.33;4.72;;;;;;;;;;6205762;23;20016;-90
2023/03/13 23:22:16;;;;;;;32.30;3.72;;;;;;;;;;6230463;23;19992;-90
2023/03/13 23:25:04;;;;;;;32.63;5.03;;;;;;;;;;6230496;23;20012;-90
2023/03/13 23:27:33;;;;;;;29.52;4.75;;;;;;;;;;6235761;23;20342;-90
2023/03/13 23:30:02;;;;;;;23.83;3.80;;;;;;;;;;6228104;23;20311;-89
2023/03/13 23:32:29;;;;;;;23.88;2.22;;;;;;;;;;6232592;23;20058;-90
2023/03/13 23:34:57;;;;;;;22.45;4.50;;;;;;;;;;6206872;23;20012;-90
2023/03/13 23:37:24;;;;;;;20.08;3.63;;;;;;;;;;6234173;23;20039;-90
2023/03/13 23:39:55;;;;;;;30.58;5.22;;;;;;;;;;6232834;23;20008;-90
2023/03/13 23:42:21;;;;;;;26.85;3.63;;;;;;;;;;6232380;23;20004;-90
2023/03/13 23:44:56;;;;;;;15.05;3.13;;;;;;;;;;6243393;22;20020;-90
2023/03/13 23:50:44;;;;;;;;;;;;;;;;;;;;;
2023/03/13 23:53:03;;;;;;;25.67;4.85;;;;;;;;;;6251539;23;20004;-90
2023/03/13 23:55:35;;;;;;;26.95;4.03;;;;;;;;;;6232114;23;20031;-91
